createdAt,value
2019-02-24T00:01:38.990Z,12.53
2019-02-24T00:04:09.467Z,13.60
2019-02-24T00:31:54.250Z,13.60
2019-02-24T01:00:18.249Z,14.67
2019-02-24T01:23:56.849Z,14.40
2019-02-24T01:26:26.187Z,13.53
2019-02-24T01:28:55.815Z,13.93
2019-02-24T01:31:25.180Z,11.53
2019-02-24T01:33:54.551Z,16.67
2019-02-24T01:36:24.167Z,13.05
2019-02-24T01:38:53.537Z,13.27
2019-02-24T01:41:23.162Z,15.93
2019-02-24T01:43:52.541Z,12.37
2019-02-24T01:46:21.923Z,13.60
2019-02-24T01:48:51.306Z,13.55
2019-02-24T01:51:20.733Z,14.17
2019-02-24T01:53:50.107Z,13.13
2019-02-24T01:56:19.466Z,13.50
2019-02-24T01:58:48.837Z,12.70
2019-02-24T02:01:18.236Z,13.60
2019-02-24T02:03:47.633Z,13.30
2019-02-24T02:06:16.995Z,14.53
2019-02-24T02:08:46.373Z,15.20
2019-02-24T02:11:15.741Z,13.60
2019-02-24T02:13:45.121Z,13.33
2019-02-24T02:16:14.492Z,13.97
2019-02-24T02:18:43.889Z,12.50
2019-02-24T02:21:13.275Z,17.50
2019-02-24T02:23:42.727Z,12.80
2019-02-24T02:26:12.105Z,12.87
2019-02-24T02:28:43.940Z,15.23
2019-02-24T02:31:12.659Z,12.63
2019-02-24T02:33:42.055Z,12.67
2019-02-24T02:36:11.690Z,12.73
2019-02-24T02:38:41.089Z,12.90
2019-02-24T02:41:11.374Z,13.08
2019-02-24T02:43:41.163Z,11.22
2019-02-24T02:46:11.643Z,14.07
2019-02-24T02:49:00.535Z,14.05
2019-02-24T02:51:29.906Z,12.70
2019-02-24T02:53:59.303Z,12.13
2019-02-24T02:56:28.662Z,17.47
2019-02-24T02:58:58.039Z,15.20
2019-02-24T03:03:56.505Z,16.63
2019-02-24T03:06:27.520Z,17.43
2019-02-24T03:08:57.159Z,15.23
2019-02-24T03:11:26.532Z,17.60
2019-02-24T03:13:56.203Z,21.27
2019-02-24T03:16:27.245Z,12.10
2019-02-24T03:18:56.635Z,12.17
2019-02-24T03:21:26.001Z,14.53
2019-02-24T03:23:55.394Z,13.35
2019-02-24T03:26:24.755Z,14.85
2019-02-24T03:29:03.644Z,14.40
2019-02-24T03:31:25.221Z,15.93
2019-02-24T03:33:54.596Z,16.35
2019-02-24T03:36:23.982Z,17.57
2019-02-24T03:38:53.343Z,14.50
2019-02-24T03:41:22.710Z,12.33
2019-02-24T03:43:53.322Z,13.85
2019-02-24T03:46:22.691Z,14.57
2019-02-24T03:48:52.147Z,17.73
2019-02-24T03:51:21.536Z,16.17
2019-02-24T03:53:50.978Z,14.07
2019-02-24T03:59:15.045Z,13.55
2019-02-24T04:01:40.686Z,13.43
2019-02-24T04:04:10.292Z,11.93
2019-02-24T04:06:40.747Z,11.47
2019-02-24T04:09:10.277Z,13.20
2019-02-24T04:11:39.925Z,13.33
2019-02-24T04:14:10.842Z,13.23
2019-02-24T04:16:40.549Z,12.53
2019-02-24T04:19:09.914Z,11.87
2019-02-24T04:21:40.311Z,11.03
2019-02-24T04:24:09.926Z,11.48
2019-02-24T04:26:39.310Z,9.03
2019-02-24T04:29:08.894Z,11.33
2019-02-24T04:31:38.260Z,12.07
2019-02-24T04:34:07.653Z,12.40
2019-02-24T04:36:37.034Z,11.70
2019-02-24T04:39:06.661Z,12.97
2019-02-24T04:41:36.041Z,13.73
2019-02-24T04:44:06.546Z,15.43
2019-02-24T04:46:35.967Z,14.03
2019-02-24T04:49:05.333Z,15.30
2019-02-24T04:51:34.695Z,11.80
2019-02-24T04:54:04.066Z,13.80
2019-02-24T04:56:33.444Z,12.10
2019-02-24T04:59:02.829Z,14.17
2019-02-24T05:01:32.202Z,13.00
2019-02-24T05:04:01.575Z,13.13
2019-02-24T05:06:30.969Z,11.10
2019-02-24T05:09:00.329Z,11.00
2019-02-24T05:11:29.705Z,12.63
2019-02-24T05:13:59.071Z,13.98
2019-02-24T05:16:28.432Z,11.67
2019-02-24T05:18:57.829Z,13.90
2019-02-24T05:21:27.212Z,11.17
2019-02-24T05:23:56.585Z,13.73
2019-02-24T05:26:25.953Z,12.33
2019-02-24T05:28:55.326Z,13.30
2019-02-24T05:31:24.932Z,12.63
2019-02-24T05:57:22.710Z,14.20
2019-02-24T06:28:57.204Z,10.73
2019-02-24T06:31:26.586Z,10.67
2019-02-24T06:33:55.951Z,11.43
2019-02-24T06:36:25.339Z,12.47
2019-02-24T06:38:54.700Z,10.43
2019-02-24T06:44:00.103Z,11.78
2019-02-24T06:46:29.483Z,12.23
2019-02-24T06:48:58.851Z,12.60
2019-02-24T06:51:28.476Z,10.48
2019-02-24T06:53:57.853Z,11.33
2019-02-24T06:56:27.500Z,11.83
2019-02-24T06:58:56.887Z,10.70
2019-02-24T07:01:26.434Z,9.40
2019-02-24T07:03:56.468Z,11.45
2019-02-24T07:06:26.510Z,9.40
2019-02-24T07:08:56.578Z,10.13
2019-02-24T07:11:25.953Z,9.47
2019-02-24T07:13:55.317Z,8.90
2019-02-24T07:16:24.681Z,9.43
2019-02-24T07:18:54.054Z,8.80
2019-02-24T07:21:23.420Z,8.03
2019-02-24T07:23:53.070Z,9.15
2019-02-24T07:26:22.434Z,10.73
2019-02-24T07:28:53.468Z,9.27
2019-02-24T07:31:22.833Z,9.57
2019-02-24T07:33:52.221Z,8.47
2019-02-24T07:36:21.593Z,7.67
2019-02-24T07:38:50.994Z,9.88
2019-02-24T07:41:20.364Z,7.83
2019-02-24T07:43:52.850Z,8.27
2019-02-24T07:46:22.162Z,7.50
2019-02-24T07:48:51.542Z,7.93
2019-02-24T07:51:20.931Z,7.57
2019-02-24T07:53:51.351Z,6.90
2019-02-24T07:56:20.747Z,6.83
2019-02-24T07:58:50.136Z,7.93
2019-02-24T08:01:19.510Z,7.70
2019-02-24T08:03:48.902Z,8.07
2019-02-24T08:06:18.276Z,7.72
2019-02-24T08:08:47.657Z,7.47
2019-02-24T08:11:17.021Z,6.37
2019-02-24T08:13:46.711Z,7.83
2019-02-24T08:16:16.149Z,6.57
2019-02-24T08:18:49.475Z,7.13
2019-02-24T08:21:17.781Z,7.33
2019-02-24T08:23:47.896Z,7.65
2019-02-24T08:26:17.931Z,8.98
2019-02-24T08:28:47.984Z,7.93
2019-02-24T08:31:17.453Z,7.17
2019-02-24T08:33:46.882Z,7.50
2019-02-24T08:36:17.286Z,9.80
2019-02-24T08:38:46.724Z,6.73
2019-02-24T08:41:16.371Z,6.00
2019-02-24T08:43:45.746Z,7.37
2019-02-24T08:46:15.303Z,6.33
2019-02-24T08:48:44.697Z,7.23
2019-02-24T08:51:14.095Z,7.45
2019-02-24T08:53:43.460Z,8.40
2019-02-24T08:56:12.872Z,7.95
2019-02-24T08:58:42.494Z,9.40
2019-02-24T09:01:13.002Z,8.00
2019-02-24T09:03:43.229Z,8.20
2019-02-24T09:06:12.618Z,8.47
2019-02-24T09:08:42.007Z,7.57
2019-02-24T09:11:11.476Z,6.87
2019-02-24T09:13:40.911Z,8.73
2019-02-24T09:16:10.292Z,7.43
2019-02-24T09:18:42.748Z,7.58
2019-02-24T09:21:12.134Z,6.93
2019-02-24T09:23:41.526Z,8.57
2019-02-24T09:26:12.493Z,8.17
2019-02-24T09:28:41.859Z,6.90
2019-02-24T09:31:11.254Z,7.65
2019-02-24T09:33:40.702Z,6.23
2019-02-24T09:36:10.095Z,5.97
2019-02-24T09:38:40.476Z,6.67
2019-02-24T09:41:10.998Z,7.97
2019-02-24T09:43:40.384Z,6.63
2019-02-24T09:46:09.804Z,7.67
2019-02-24T09:48:39.565Z,6.77
2019-02-24T09:51:08.962Z,8.37
2019-02-24T09:53:38.336Z,6.17
2019-02-24T09:56:07.805Z,7.13
2019-02-24T09:58:37.171Z,6.60
2019-02-24T10:01:10.615Z,10.60
2019-02-24T10:03:37.711Z,6.60
2019-02-24T10:06:07.091Z,8.23
2019-02-24T10:08:36.483Z,6.10
2019-02-24T10:11:05.919Z,5.92
2019-02-24T10:13:36.242Z,7.10
2019-02-24T10:16:05.629Z,5.75
2019-02-24T10:18:37.922Z,5.50
2019-02-24T10:21:07.392Z,7.00
2019-02-24T10:23:36.765Z,6.93
2019-02-24T10:26:06.315Z,7.37
2019-02-24T10:28:35.695Z,6.97
2019-02-24T10:31:05.392Z,6.97
2019-02-24T10:33:34.767Z,5.63
2019-02-24T10:36:04.150Z,6.60
2019-02-24T10:38:33.526Z,6.93
2019-02-24T10:41:02.921Z,6.25
2019-02-24T10:43:32.631Z,7.00
2019-02-24T10:46:02.380Z,8.70
2019-02-24T10:48:31.747Z,6.43
2019-02-24T10:51:04.054Z,6.80
2019-02-24T10:53:33.435Z,6.53
2019-02-24T10:56:02.827Z,8.15
2019-02-24T10:58:34.617Z,8.98
2019-02-24T11:01:03.382Z,7.73
2019-02-24T11:03:32.757Z,7.50
2019-02-24T11:06:02.146Z,8.90
2019-02-24T11:08:31.534Z,7.90
2019-02-24T11:11:02.463Z,10.03
2019-02-24T11:13:31.849Z,7.15
2019-02-24T11:16:01.221Z,7.40
2019-02-24T11:18:30.843Z,7.03
2019-02-24T11:21:02.092Z,6.27
2019-02-24T11:23:31.492Z,8.43
2019-02-24T11:26:00.850Z,5.80
2019-02-24T11:28:30.217Z,5.93
2019-02-24T11:30:59.598Z,8.97
2019-02-24T11:33:29.293Z,7.28
2019-02-24T11:35:58.678Z,7.63
2019-02-24T11:38:28.055Z,6.70
2019-02-24T11:40:57.674Z,8.20
2019-02-24T11:43:27.307Z,5.97
2019-02-24T11:45:56.680Z,6.47
2019-02-24T11:48:26.077Z,7.37
2019-02-24T11:50:55.455Z,6.83
2019-02-24T11:53:24.901Z,6.73
2019-02-24T11:55:54.291Z,7.57
2019-02-24T11:58:23.694Z,6.43
2019-02-24T12:00:53.067Z,6.63
2019-02-24T12:03:22.447Z,7.10
2019-02-24T12:05:51.839Z,9.67
2019-02-24T12:08:21.287Z,7.33
2019-02-24T12:10:50.665Z,7.37
2019-02-24T12:13:20.093Z,10.98
2019-02-24T12:15:49.488Z,6.87
2019-02-24T12:18:18.845Z,7.07
2019-02-24T12:20:48.219Z,7.80
2019-02-24T12:23:17.598Z,6.40
2019-02-24T12:25:46.975Z,6.27
2019-02-24T12:28:16.364Z,5.80
2019-02-24T12:30:45.751Z,5.23
2019-02-24T12:33:15.143Z,6.45
2019-02-24T12:35:45.658Z,5.37
2019-02-24T12:38:15.035Z,6.27
2019-02-24T12:40:44.645Z,6.10
2019-02-24T12:43:14.035Z,4.83
2019-02-24T12:45:43.449Z,8.87
2019-02-24T12:48:13.923Z,5.07
2019-02-24T12:50:43.635Z,5.50
2019-02-24T12:53:13.273Z,5.17
2019-02-24T12:55:43.180Z,4.83
2019-02-24T12:58:13.019Z,5.57
2019-02-24T13:00:42.517Z,4.37
2019-02-24T13:03:12.266Z,4.05
2019-02-24T13:05:41.653Z,4.20
2019-02-24T13:08:11.388Z,4.85
2019-02-24T13:10:40.874Z,5.33
2019-02-24T13:13:10.284Z,4.10
2019-02-24T13:15:39.648Z,5.27
2019-02-24T13:18:12.278Z,5.07
2019-02-24T13:20:46.419Z,5.40
2019-02-24T13:23:25.106Z,4.40
2019-02-24T13:25:54.481Z,7.27
2019-02-24T13:28:23.864Z,5.53
2019-02-24T13:30:53.249Z,4.87
2019-02-24T13:33:22.958Z,5.97
2019-02-24T13:35:52.347Z,5.17
2019-02-24T13:38:22.030Z,5.37
2019-02-24T13:40:51.412Z,5.10
2019-02-24T13:43:22.668Z,4.53
2019-02-24T13:45:52.038Z,3.93
2019-02-24T13:48:21.428Z,4.20
2019-02-24T13:50:56.857Z,5.10
2019-02-24T13:53:26.251Z,4.17
2019-02-24T13:55:55.974Z,4.40
2019-02-24T13:58:25.364Z,5.63
2019-02-24T14:00:54.974Z,6.37
2019-02-24T14:03:24.357Z,3.45
2019-02-24T14:05:53.791Z,4.33
2019-02-24T14:08:23.365Z,4.20
2019-02-24T14:10:52.738Z,6.27
2019-02-24T14:13:22.132Z,6.22
2019-02-24T14:15:51.514Z,6.03
2019-02-24T14:18:21.185Z,8.23
2019-02-24T14:20:50.909Z,8.30
2019-02-24T14:23:20.277Z,8.83
2019-02-24T14:25:49.916Z,6.03
2019-02-24T14:28:20.833Z,6.50
2019-02-24T14:30:53.471Z,7.03
2019-02-24T14:33:22.845Z,6.87
2019-02-24T14:35:52.303Z,6.27
2019-02-24T14:38:21.686Z,6.72
2019-02-24T14:40:51.085Z,7.33
2019-02-24T14:43:24.322Z,5.40
2019-02-24T14:45:56.435Z,7.80
2019-02-24T14:48:26.198Z,6.17
2019-02-24T14:50:56.034Z,4.93
2019-02-24T14:53:25.596Z,7.87
2019-02-24T14:55:56.892Z,17.47
2019-02-24T14:58:44.113Z,11.17
2019-02-24T15:01:17.654Z,5.37
2019-02-24T15:03:47.036Z,6.77
2019-02-24T15:06:16.422Z,10.03
2019-02-24T15:08:45.870Z,18.55
2019-02-24T15:11:15.614Z,12.27
2019-02-24T15:13:44.995Z,9.63
2019-02-24T15:16:14.679Z,47.10
2019-02-24T15:18:44.093Z,37.43
2019-02-24T15:21:13.825Z,51.27
2019-02-24T15:23:43.206Z,65.95
2019-02-24T15:26:12.602Z,16.27
2019-02-24T15:28:42.045Z,15.60
2019-02-24T15:31:14.312Z,5.27
2019-02-24T15:33:51.657Z,7.60
2019-02-24T15:36:21.499Z,5.23
2019-02-24T15:38:50.828Z,9.00
2019-02-24T15:41:29.321Z,7.30
2019-02-24T15:43:54.914Z,5.87
2019-02-24T15:46:26.798Z,4.60
2019-02-24T15:48:56.428Z,5.53
2019-02-24T15:51:32.306Z,4.50
2019-02-24T15:54:06.372Z,6.13
2019-02-24T15:56:41.591Z,4.53
2019-02-24T15:59:12.486Z,3.45
2019-02-24T16:01:41.866Z,4.23
2019-02-24T16:04:19.586Z,3.47
2019-02-24T16:06:44.019Z,3.40
2019-02-24T16:09:20.224Z,5.17
2019-02-24T16:11:50.350Z,5.93
2019-02-24T16:14:19.740Z,4.77
2019-02-24T16:16:49.369Z,3.77
2019-02-24T16:19:35.833Z,4.37
2019-02-24T16:22:10.347Z,4.50
2019-02-24T16:24:39.902Z,5.03
2019-02-24T16:27:14.392Z,4.08
2019-02-24T16:29:44.356Z,3.10
2019-02-24T16:32:13.755Z,4.30
2019-02-24T16:34:50.941Z,6.10
2019-02-24T16:37:26.684Z,3.83
2019-02-24T16:40:05.487Z,5.80
2019-02-24T16:42:37.981Z,46.77
2019-02-24T16:45:14.435Z,53.70
2019-02-24T16:47:44.079Z,7.60
2019-02-24T16:50:21.739Z,4.82
2019-02-24T16:52:53.349Z,5.03
2019-02-24T16:55:26.419Z,7.43
2019-02-24T16:58:00.366Z,7.00
2019-02-24T17:00:32.554Z,9.53
2019-02-24T17:03:02.397Z,5.17
2019-02-24T17:05:33.561Z,6.90
2019-02-24T17:08:11.480Z,5.00
2019-02-24T17:10:45.107Z,7.00
2019-02-24T17:13:14.530Z,3.93
2019-02-24T17:15:44.854Z,4.97
2019-02-24T17:18:19.586Z,6.03
2019-02-24T17:20:50.589Z,5.67
2019-02-24T17:23:25.367Z,6.90
2019-02-24T17:25:54.721Z,7.23
2019-02-24T17:28:24.152Z,8.53
2019-02-24T17:30:53.925Z,6.43
2019-02-24T17:33:29.931Z,9.73
2019-02-24T17:35:55.581Z,8.53
2019-02-24T17:38:25.124Z,7.73
2019-02-24T17:40:54.519Z,6.23
2019-02-24T17:43:24.242Z,6.57
2019-02-24T17:45:53.588Z,8.10
2019-02-24T17:48:23.233Z,6.87
2019-02-24T17:50:57.898Z,6.90
2019-02-24T17:53:29.158Z,7.60
2019-02-24T17:55:58.949Z,11.37
2019-02-24T17:58:28.676Z,11.78
2019-02-24T18:01:02.592Z,6.97
2019-02-24T18:03:39.010Z,7.33
2019-02-24T18:06:04.095Z,6.47
2019-02-24T18:08:33.474Z,7.57
2019-02-24T18:11:02.916Z,4.30
2019-02-24T18:13:32.381Z,5.93
2019-02-24T18:16:01.820Z,6.53
2019-02-24T18:18:31.261Z,5.27
2019-02-24T18:21:06.456Z,7.57
2019-02-24T18:23:35.503Z,10.28
2019-02-24T18:26:05.241Z,7.90
2019-02-24T18:28:34.754Z,8.90
2019-02-24T18:31:06.271Z,6.33
2019-02-24T18:33:37.656Z,7.45
2019-02-24T18:36:07.023Z,9.93
2019-02-24T18:38:38.566Z,9.37
2019-02-24T18:41:11.583Z,9.53
2019-02-24T18:43:41.115Z,8.30
2019-02-24T18:46:10.507Z,8.07
2019-02-24T18:48:39.964Z,13.70
2019-02-24T18:51:09.649Z,9.83
2019-02-24T18:53:39.280Z,6.37
2019-02-24T18:56:20.037Z,4.95
2019-02-24T18:58:49.430Z,5.57
2019-02-24T19:01:18.861Z,4.93
2019-02-24T19:03:57.143Z,5.87
2019-02-24T19:06:19.339Z,7.50
2019-02-24T19:08:48.715Z,7.70
2019-02-24T19:11:18.094Z,8.30
2019-02-24T19:13:47.486Z,11.30
2019-02-24T19:16:16.857Z,13.70
2019-02-24T19:18:46.251Z,6.50
2019-02-24T19:21:15.630Z,16.10
2019-02-24T19:23:45.062Z,7.20
2019-02-24T19:26:14.426Z,7.78
2019-02-24T19:28:43.893Z,6.07
2019-02-24T19:31:13.258Z,6.57
2019-02-24T19:33:42.677Z,5.37
2019-02-24T19:36:12.338Z,6.90
2019-02-24T19:38:49.384Z,6.80
2019-02-24T19:41:20.315Z,8.20
2019-02-24T19:44:00.489Z,7.53
2019-02-24T19:46:29.867Z,9.53
2019-02-24T19:48:59.529Z,7.07
2019-02-24T19:51:28.927Z,6.78
2019-02-24T19:53:58.588Z,6.77
2019-02-24T19:56:27.961Z,9.47
2019-02-24T19:59:03.388Z,11.57
2019-02-24T20:01:34.403Z,10.77
2019-02-24T20:04:03.928Z,11.47
2019-02-24T20:06:33.462Z,8.18
2019-02-24T20:09:02.793Z,9.33
2019-02-24T20:11:51.488Z,10.35
2019-02-24T20:14:20.885Z,10.60
2019-02-24T20:16:50.280Z,9.17
2019-02-24T20:19:19.650Z,6.90
2019-02-24T20:21:51.395Z,7.43
2019-02-24T20:24:20.821Z,7.93
2019-02-24T20:26:50.497Z,8.03
2019-02-24T20:29:19.901Z,6.03
2019-02-24T20:31:49.627Z,6.93
2019-02-24T20:34:25.227Z,6.60
2019-02-24T20:36:50.758Z,9.30
2019-02-24T20:39:20.203Z,8.93
2019-02-24T20:41:54.620Z,10.23
2019-02-24T20:44:24.209Z,7.92
2019-02-24T20:47:04.117Z,10.87
2019-02-24T20:49:33.513Z,10.37
2019-02-24T20:52:02.880Z,10.63
2019-02-24T20:54:32.601Z,10.07
2019-02-24T20:57:01.977Z,7.67
2019-02-24T20:59:31.357Z,8.33
2019-02-24T21:02:01.042Z,14.10
2019-02-24T21:04:30.448Z,13.43
2019-02-24T21:07:02.852Z,15.43
2019-02-24T21:09:32.229Z,15.53
2019-02-24T21:12:01.624Z,10.67
2019-02-24T21:14:31.016Z,13.98
2019-02-24T21:17:00.370Z,15.67
2019-02-24T21:19:29.771Z,17.30
2019-02-24T21:21:59.132Z,11.70
2019-02-24T21:24:28.649Z,16.60
2019-02-24T21:26:58.028Z,15.27
2019-02-24T21:29:27.429Z,11.03
2019-02-24T21:31:56.801Z,17.57
2019-02-24T21:34:26.177Z,13.20
2019-02-24T21:36:55.553Z,11.40
2019-02-24T21:39:24.930Z,10.97
2019-02-24T21:41:54.574Z,10.27
2019-02-24T21:44:23.964Z,12.93
2019-02-24T21:46:53.340Z,15.07
2019-02-24T21:49:24.700Z,12.07
2019-02-24T21:51:54.057Z,11.43
2019-02-24T21:54:23.471Z,12.83
2019-02-24T21:56:52.840Z,14.67
2019-02-24T21:59:22.254Z,13.90
2019-02-24T22:01:51.614Z,10.23
2019-02-24T22:04:20.999Z,10.63
2019-02-24T22:06:50.378Z,12.57
2019-02-24T22:09:19.771Z,13.43
2019-02-24T22:11:49.152Z,11.43
2019-02-24T22:14:18.529Z,10.63
2019-02-24T22:16:48.234Z,12.43
2019-02-24T22:19:17.608Z,13.43
2019-02-24T22:21:46.969Z,10.80
2019-02-24T22:24:16.384Z,12.97
2019-02-24T22:26:45.722Z,9.57
2019-02-24T22:29:15.468Z,9.23
2019-02-24T22:31:45.226Z,9.57
2019-02-24T22:34:14.593Z,11.20
2019-02-24T22:36:45.475Z,11.65
2019-02-24T22:39:14.835Z,16.80
2019-02-24T22:41:44.530Z,11.23
2019-02-24T22:44:13.917Z,9.10
2019-02-24T22:46:43.266Z,10.73
2019-02-24T22:49:12.633Z,9.40
2019-02-24T22:51:42.060Z,13.10
2019-02-24T22:54:11.680Z,13.80
2019-02-24T22:56:41.054Z,15.30
2019-02-24T22:59:10.725Z,11.90
2019-02-24T23:01:40.955Z,11.50
2019-02-24T23:04:11.811Z,12.60
2019-02-24T23:06:41.202Z,13.10
2019-02-24T23:09:13.170Z,12.03
2019-02-24T23:11:42.642Z,11.67
2019-02-24T23:14:12.002Z,10.13
2019-02-24T23:16:41.386Z,10.23
2019-02-24T23:19:10.766Z,10.07
2019-02-24T23:21:40.141Z,9.63
2019-02-24T23:24:09.515Z,9.37
2019-02-24T23:26:39.361Z,9.20
2019-02-24T23:29:08.733Z,8.23
2019-02-24T23:31:38.122Z,9.63
2019-02-24T23:34:07.769Z,10.28
2019-02-24T23:36:37.126Z,12.63
2019-02-24T23:39:09.364Z,11.93
2019-02-24T23:41:38.743Z,10.08
2019-02-24T23:44:08.105Z,12.37
2019-02-24T23:46:37.591Z,11.38
2019-02-24T23:49:08.569Z,8.07
2019-02-24T23:51:37.961Z,10.07
2019-02-24T23:54:08.335Z,9.83
2019-02-24T23:56:37.858Z,9.13
2019-02-24T23:59:07.728Z,12.07
